• Join FlightAware (Why Join?)
  • Login
  • US Flag GB Flag 
12:51 EDT


 

Airport Tracker/Info


-or-


 

Live Flight TrackerFlight Track Log ✈ SKW6330 ✈ 24-Apr-2013 ✈ KMSN - KDEN

Flight Track Log - Related Links

Times and Time Zones

All times are in EDT time to prevent confusion due to time zone crossing. See the SKW6330 flight status page for this flight to view local times or setup timezone preferences in your user account.

Time Position Orientation Groundspeed Altitude Reporting Facility
EDT Latitude Longitude Course Direction KTS MPH feet Rate Location/Type
09:21 43.1844 -89.3400 246° West 154 177 3,000  Level Minneapolis Center
09:22 43.1583 -89.4208 246° West 238 274 5,200 2,400 Climbing Minneapolis Center
09:23 43.1031 -89.4861 221° Southwest 260 299 8,000 2,520 Climbing Minneapolis Center
09:24 43.0989 -89.5875 267° West 271 312 10,500 2,040 Climbing Minneapolis Center
09:25 43.1008 -89.6956 271° West 279 321 12,300 2,040 Climbing Minneapolis Center
09:26 43.1008 -89.8108 270° West 297 342 14,700 2,100 Climbing Minneapolis Center
09:27 43.1028 -89.9550 271° West 315 362 17,100 1,860 Climbing Chicago Center
09:28 43.1047 -90.0747 271° West 316 364 19,000 1,920 Climbing Chicago Center
09:29 43.1064 -90.2158 271° West 312 359 21,100 1,620 Climbing Chicago Center
09:31 43.1092 -90.3372 272° West 321 369 22,400 1,080 Climbing Chicago Center
09:32 43.1100 -90.4606 271° West 326 375 23,400 960 Climbing Chicago Center
09:33 43.1100 -90.5875 270° West 335 386 24,400 960 Climbing Chicago Center
09:34 43.1092 -90.7167 270° West 342 394 25,400 960 Climbing Chicago Center
09:35 43.1111 -90.8725 271° West 345 397 26,500 900 Climbing Chicago Center
09:35 43.1106 -90.9769 270° West 347 399 27,100 720 Climbing Minneapolis Center
09:36 43.1117 -91.1100 271° West 351 404 27,900 600 Climbing Minneapolis Center
09:38 43.1119 -91.2450 270° West 357 411 28,400 480 Climbing Minneapolis Center
09:39 43.1122 -91.3803 270° West 359 413 29,000 660 Climbing Minneapolis Center
09:40 43.1128 -91.5167 270° West 363 418 29,800 780 Climbing Minneapolis Center
09:41 43.1114 -91.6767 269° West 358 412 30,700 720 Climbing Minneapolis Center
09:42 43.1103 -91.8089 269° West 355 409 31,400 600 Climbing Minneapolis Center
09:43 43.1097 -91.9397 270° West 351 404 32,000 240 Climbing Minneapolis Center
09:44 43.1089 -92.0703 270° West 348 400 32,000  Level Minneapolis Center
09:45 43.1083 -92.2256 270° West 345 397 32,000  Level Minneapolis Center
09:46 43.1078 -92.3489 270° West 333 383 32,000  Level Minneapolis Center
09:47 43.1058 -92.4728 269° West 329 379 32,000  Level Minneapolis Center
09:48 43.1047 -92.5972 269° West 331 381 32,000  Level Minneapolis Center
09:49 43.1028 -92.7231 269° West 332 382 32,000  Level Minneapolis Center
09:50 43.1017 -92.8464 269° West 329 379 32,000  Level Minneapolis Center
09:51 43.0997 -92.9981 269° West 334 384 32,000  Level Minneapolis Center
09:52 43.0978 -93.1236 269° West 333 383 32,000  Level Minneapolis Center
09:53 43.0956 -93.2492 269° West 333 383 32,000  Level Minneapolis Center
09:54 43.0911 -93.3733 267° West 330 380 32,000  Level Minneapolis Center
09:55 43.0794 -93.4964 263° West 330 380 32,000  Level Minneapolis Center
09:56 43.0664 -93.6411 263° West 323 372 32,000  Level Minneapolis Center
09:57 43.0556 -93.7625 263° West 325 374 32,000  Level Minneapolis Center
09:58 43.0431 -93.8839 262° West 325 374 32,000  Level Minneapolis Center
09:59 43.0328 -94.0058 263° West 325 374 32,000  Level Minneapolis Center
10:00 43.0203 -94.1258 262° West 324 373 32,000  Level Minneapolis Center
10:01 43.0072 -94.2500 262° West 327 376 32,000  Level Minneapolis Center
10:02 42.9864 -94.3967 259° West 329 379 32,000  Level Minneapolis Center
10:03 42.9728 -94.5197 261° West 330 380 32,000  Level Minneapolis Center
10:04 42.9669 -94.6425 266° West 327 376 32,000  Level Minneapolis Center
10:05 42.9550 -94.7656 262° West 327 376 32,000  Level Minneapolis Center
10:06 42.9414 -94.8897 262° West 330 380 32,000  Level Minneapolis Center
10:07 42.9272 -95.0136 261° West 330 380 32,000  Level Minneapolis Center
10:08 42.9122 -95.1622 262° West 330 380 32,000  Level Minneapolis Center
10:09 42.8986 -95.2856 261° West 331 381 32,000  Level Minneapolis Center
10:11 42.8847 -95.4083 261° West 329 379 32,000  Level Minneapolis Center
10:12 42.8714 -95.5319 262° West 330 380 32,000  Level Minneapolis Center
10:13 42.8572 -95.6558 261° West 331 381 32,000  Level Minneapolis Center
10:14 42.8422 -95.7794 261° West 332 382 32,000  Level Minneapolis Center
10:15 42.8264 -95.9297 262° West 335 386 32,000  Level Minneapolis Center
10:16 42.8111 -96.0542 261° West 335 386 32,000  Level Minneapolis Center
10:17 42.7961 -96.1769 261° West 332 382 32,000  Level Minneapolis Center
10:18 42.7814 -96.3008 261° West 333 383 32,000  Level Minneapolis Center
10:19 42.7664 -96.4208 260° West 325 374 32,000  Level Minneapolis Center
10:20 42.7525 -96.5417 261° West 324 373 32,000  Level Minneapolis Center
10:21 42.7350 -96.6833 261° West 318 366 32,000  Level Minneapolis Center
10:22 42.7200 -96.8014 260° West 317 365 32,000  Level Minneapolis Center
10:23 42.7058 -96.9181 261° West 315 362 32,000  Level Minneapolis Center
10:24 42.6919 -97.0356 261° West 315 362 32,000  Level Minneapolis Center
10:25 42.6767 -97.1506 260° West 312 359 32,000  Level Minneapolis Center
10:26 42.6617 -97.2653 260° West 310 357 32,000  Level Minneapolis Center
10:27 42.6475 -97.3800 261° West 309 356 32,000  Level Minneapolis Center
10:28 42.6281 -97.5208 259° West 317 365 32,000  Level Minneapolis Center
10:29 42.6136 -97.6381 261° West 316 364 32,000  Level Minneapolis Center
10:30 42.5969 -97.7564 259° West 320 368 32,000  Level Minneapolis Center
10:31 42.5814 -97.8747 260° West 323 372 32,000  Level Minneapolis Center
10:32 42.5656 -97.9953 260° West 324 373 32,000  Level Minneapolis Center
10:33 42.5467 -98.1408 260° West 328 377 32,000  Level Minneapolis Center
10:34 42.5300 -98.2608 259° West 325 374 32,000  Level Minneapolis Center
10:35 42.5131 -98.3822 259° West 326 375 32,000  Level Minneapolis Center
10:36 42.4967 -98.5039 260° West 328 377 32,000  Level Minneapolis Center
10:37 42.4789 -98.6253 259° West 329 379 32,000  Level Minneapolis Center
10:38 42.4461 -98.7408 249° West 330 380 32,000  Level Minneapolis Center
10:39 42.3889 -98.8678 239° Southwest 330 380 32,000  Level Minneapolis Center
10:40 42.3417 -98.9747 239° Southwest 330 380 32,000  Level Minneapolis Center
10:41 42.2944 -99.0792 239° Southwest 326 375 32,000  Level Minneapolis Center
10:43 42.2478 -99.1822 239° Southwest 324 373 32,000  Level Minneapolis Center
10:44 42.2014 -99.2861 239° Southwest 323 372 32,000  Level Minneapolis Center
10:45 42.1542 -99.3886 238° Southwest 322 371 32,000  Level Minneapolis Center
10:45 42.1253 -99.4497 238° Southwest 320 368 32,000  Level Denver Center
10:46 42.0794 -99.5519 239° Southwest 320 368 32,000  Level Denver Center
10:47 42.0339 -99.6522 239° Southwest 316 364 32,000  Level Denver Center
10:48 41.9886 -99.7503 238° Southwest 315 362 32,000  Level Denver Center
10:49 41.9461 -99.8692 244° Southwest 314 361 32,000  Level Denver Center
10:50 41.9108 -99.9681 244° Southwest 310 357 32,000  Level Denver Center
10:51 41.8686 -100.0833 244° Southwest 309 356 32,000  Level Denver Center
10:52 41.8339 -100.1819 245° Southwest 307 353 32,000  Level Denver Center
10:53 41.7917 -100.2964 244° Southwest 306 352 32,000  Level Denver Center
10:54 41.7561 -100.3936 244° Southwest 306 352 32,000  Level Denver Center
10:55 41.7139 -100.5100 244° Southwest 310 357 32,000  Level Denver Center
10:56 41.6753 -100.6153 244° Southwest 322 371 32,000  Level Denver Center
10:57 41.6283 -100.7461 244° Southwest 347 399 32,000  Level Denver Center
10:58 41.5867 -100.8561 243° Southwest 349 402 32,000  Level Denver Center
11:00 41.5400 -100.9831 244° Southwest 345 397 32,000  Level Denver Center
11:01 41.4989 -101.0928 243° Southwest 347 399 32,000  Level Denver Center
11:02 41.4517 -101.2183 243° Southwest 341 392 32,000  Level Denver Center
11:03 41.4114 -101.3258 243° Southwest 341 392 32,000  Level Denver Center
11:04 41.3644 -101.4506 243° Southwest 339 390 32,000  Level Denver Center
11:05 41.3244 -101.5578 244° Southwest 338 389 32,000  Level Denver Center
11:06 41.2775 -101.6822 243° Southwest 340 391 32,000  Level Denver Center
11:07 41.2381 -101.7881 244° Southwest 337 388 32,000  Level Denver Center
11:08 41.1900 -101.9117 243° Southwest 338 389 32,000  Level Denver Center
11:09 41.1486 -102.0192 243° Southwest 341 392 32,000  Level Denver Center
11:10 41.1003 -102.1439 243° Southwest 341 392 32,000  Level Denver Center
11:11 41.0586 -102.2503 243° Southwest 340 391 32,000  Level Denver Center
11:12 41.0169 -102.3578 243° Southwest 342 394 32,000  Level Denver Center
11:13 40.9683 -102.4806 242° Southwest 339 390 32,000  Level Denver Center
11:14 40.9281 -102.5858 243° Southwest 336 387 32,000  Level Denver Center
11:15 40.8792 -102.7089 242° Southwest 337 388 32,000  Level Denver Center
11:16 40.8367 -102.8133 242° Southwest 338 389 32,000  Level Denver Center
11:17 40.7881 -102.9356 242° Southwest 337 388 32,000 -300 Level Denver Center
11:18 40.7436 -103.0478 242° Southwest 337 388 31,500 -1,140 Descending Denver Center
11:19 40.7000 -103.1592 243° Southwest 338 389 29,700 -1,800 Descending Denver Center
11:20 40.6589 -103.2658 243° Southwest 327 376 27,900 -1,800 Descending Denver Center
11:21 40.6144 -103.3725 241° Southwest 327 376 26,100 -1,800 Descending Denver Center
11:22 40.5717 -103.4775 242° Southwest 325 374 24,200 -1,920 Descending Denver Center
11:23 40.5228 -103.6014 243° Southwest 325 374 22,100 -1,920 Descending Denver Center
11:24 40.4800 -103.7072 242° Southwest 326 375 20,300 -1,740 Descending Denver Center
11:25 40.4367 -103.8161 242° Southwest 327 376 18,600 -1,500 Descending Denver Center
11:26 40.3953 -103.9119 240° Southwest 298 343 17,300 -780 Descending Denver Center
11:27 40.3583 -104.0106 244° Southwest 280 322 17,000 -720 Descending Denver Center
11:28 40.3558 -104.1086 268° West 269 310 15,900 -1,080 Descending Denver Center
11:30 40.3544 -104.2192 269° West 281 323 14,800 -1,020 Descending Denver Center
11:31 40.3136 -104.3078 239° Southwest 289 333 13,900 -1,020 Descending Denver Center
11:32 40.2628 -104.3994 234° Southwest 288 331 12,800 -1,020 Descending Denver Center
11:33 40.2167 -104.4822 234° Southwest 283 326 11,800 -1,320 Descending Denver Center
11:34 40.1636 -104.5528 225° Southwest 277 319 10,100 -1,260 Descending Denver Center
11:35 40.0950 -104.6028 209° Southwest 260 299 9,200 -780 Descending Denver Center
11:36 40.0453 -104.6381 209° Southwest 204 235 8,500 -960 Descending Denver Center
11:37 39.9972 -104.6719 208° Southwest 185 213 7,300 -1,020 Descending Denver Center
11:38 39.9544 -104.6858 194° South 153 176 6,400 -780 Descending Denver Center
11:39 39.9086 -104.6867 181° South 151 174 5,700 -540 Descending Denver Center
11:40 39.8792 -104.6878 182° South 114 131 5,300 -420 Descending Denver Center
11:42 39.8617 -104.6732 201° Southwest  Level Estimated